Time;durP1;ratioP1;P1;durP2;ratioP2;P2;SDS_P1;SDS_P2;PMS_P1;PMS_P2;Temp;Humidity;BMP_temperature;BMP_pressure;BME280_temperature;BME280_humidity;BME280_pressure;Samples;Min_cycle;Max_cycle;Signal;HPM_P1;HPM_P2
2023/03/16 00:01:18;;;;;;;10.35;2.15;;;4.90;71.90;;;;;;5073421;28;20039;-88
2023/03/16 00:03:43;;;;;;;9.55;2.42;;;5.00;71.80;;;;;;5073488;28;20150;-88
2023/03/16 00:06:09;;;;;;;9.77;2.05;;;4.90;72.00;;;;;;5074133;28;20036;-88
2023/03/16 00:08:37;;;;;;;8.05;2.50;;;4.90;72.00;;;;;;5074315;28;20132;-88
2023/03/16 00:11:03;;;;;;;10.38;2.55;;;4.90;72.70;;;;;;5074217;28;20458;-88
2023/03/16 00:13:29;;;;;;;9.82;2.13;;;5.00;72.20;;;;;;5074534;28;20447;-88
2023/03/16 00:15:57;;;;;;;8.57;2.22;;;4.90;72.10;;;;;;5089596;28;20032;-88
2023/03/16 00:18:26;;;;;;;7.10;2.20;;;5.00;72.30;;;;;;5089902;28;20040;-89
2023/03/16 00:20:57;;;;;;;6.50;1.88;;;5.00;72.30;;;;;;5073273;28;20085;-88
2023/03/16 00:23:26;;;;;;;7.38;2.38;;;5.00;72.40;;;;;;5072411;28;20127;-88
2023/03/16 00:25:59;;;;;;;7.15;2.40;;;5.00;72.40;;;;;;5090319;28;20048;-87
2023/03/16 00:28:26;;;;;;;6.00;2.08;;;5.00;72.70;;;;;;5072875;28;20123;-88
2023/03/16 00:30:57;;;;;;;5.72;1.98;;;5.00;72.40;;;;;;5073937;28;20077;-87
2023/03/16 00:33:23;;;;;;;6.53;2.55;;;5.00;72.70;;;;;;5090564;28;20540;-87
2023/03/16 00:35:49;;;;;;;9.88;2.72;;;5.00;73.10;;;;;;5072642;28;20055;-87
2023/03/16 00:38:16;;;;;;;11.38;3.45;;;5.00;72.90;;;;;;5073804;28;20036;-88
2023/03/16 00:40:42;;;;;;;9.45;2.75;;;5.10;73.30;;;;;;5089536;28;20047;-88
2023/03/16 00:43:08;;;;;;;6.28;2.35;;;5.00;73.30;;;;;;5073496;28;20048;-88
2023/03/16 00:45:34;;;;;;;7.63;2.20;;;5.00;73.20;;;;;;5073459;28;20115;-88
2023/03/16 00:48:00;;;;;;;9.80;2.67;;;5.00;73.30;;;;;;5072575;28;20040;-88
2023/03/16 00:50:26;;;;;;;9.48;2.47;;;5.00;73.10;;;;;;5090148;28;20382;-88
2023/03/16 00:52:53;;;;;;;9.48;2.53;;;5.00;73.30;;;;;;5089382;28;20043;-88
2023/03/16 00:55:21;;;;;;;7.05;2.45;;;5.00;73.40;;;;;;5073488;28;20036;-88
2023/03/16 00:57:47;;;;;;;8.98;2.25;;;5.00;73.50;;;;;;5090216;28;20117;-88
2023/03/16 01:00:16;;;;;;;7.40;2.00;;;5.00;73.50;;;;;;5067598;28;20044;-88
2023/03/16 01:02:44;;;;;;;6.60;2.00;;;5.10;73.40;;;;;;5077536;28;20401;-88
2023/03/16 01:05:11;;;;;;;8.05;2.55;;;5.10;73.50;;;;;;5093066;28;20468;-87
2023/03/16 01:07:38;;;;;;;9.90;2.63;;;5.10;73.50;;;;;;5093123;28;20040;-88
2023/03/16 01:10:05;;;;;;;7.15;2.25;;;5.10;73.60;;;;;;5093084;28;20563;-88
2023/03/16 01:12:31;;;;;;;7.88;2.35;;;5.10;73.70;;;;;;5076459;28;20404;-88
2023/03/16 01:14:56;;;;;;;6.57;2.65;;;5.10;73.90;;;;;;5093206;28;20028;-88
2023/03/16 01:17:22;;;;;;;9.10;2.53;;;5.10;73.90;;;;;;5076820;28;20039;-88
2023/03/16 01:19:48;;;;;;;9.25;2.70;;;5.00;73.80;;;;;;5094085;28;20048;-88
2023/03/16 01:22:14;;;;;;;8.30;2.72;;;5.10;74.00;;;;;;5076241;28;20522;-88
2023/03/16 01:24:43;;;;;;;8.73;2.60;;;5.10;74.00;;;;;;5093930;28;20049;-88
2023/03/16 01:27:09;;;;;;;7.70;2.63;;;5.00;74.00;;;;;;5076211;28;20151;-88
2023/03/16 01:29:36;;;;;;;6.55;2.58;;;5.10;74.10;;;;;;5076727;28;20457;-88
2023/03/16 01:32:03;;;;;;;8.60;2.97;;;5.00;74.00;;;;;;5076218;28;20051;-88
2023/03/16 01:34:29;;;;;;;8.80;2.88;;;5.00;74.10;;;;;;5076276;28;20077;-87
2023/03/16 01:36:55;;;;;;;8.02;2.92;;;5.00;74.10;;;;;;5093130;28;20036;-87
2023/03/16 01:39:20;;;;;;;10.25;2.70;;;5.00;74.10;;;;;;5075478;28;20089;-87
2023/03/16 01:41:47;;;;;;;12.68;3.30;;;5.00;74.10;;;;;;5093232;28;20076;-87
2023/03/16 01:44:18;;;;;;;9.18;3.10;;;5.00;74.30;;;;;;5093604;28;20145;-87
2023/03/16 01:46:44;;;;;;;12.82;3.20;;;4.90;74.10;;;;;;5075241;28;20702;-87
2023/03/16 01:49:15;;;;;;;9.23;2.67;;;4.90;74.20;;;;;;5075593;28;20040;-87
2023/03/16 01:51:52;;;;;;;9.35;2.88;;;4.90;74.40;;;;;;5092556;28;20032;-87
2023/03/16 01:54:21;;;;;;;6.78;2.83;;;4.90;74.40;;;;;;5092842;28;20047;-87
2023/03/16 01:57:03;;;;;;;9.15;2.70;;;4.90;74.60;;;;;;5076431;28;20405;-87
2023/03/16 01:59:43;;;;;;;8.82;2.90;;;4.90;74.80;;;;;;5092139;28;20489;-87
2023/03/16 02:02:12;;;;;;;8.52;2.55;;;4.90;74.70;;;;;;5076186;28;20040;-86
2023/03/16 02:04:57;;;;;;;9.43;3.25;;;4.80;74.70;;;;;;5076119;28;20047;-87
2023/03/16 02:07:25;;;;;;;10.10;3.78;;;4.80;74.90;;;;;;5074456;28;20036;-87
2023/03/16 02:09:54;;;;;;;9.10;3.13;;;4.80;74.90;;;;;;5075561;28;20044;-87
2023/03/16 02:12:20;;;;;;;8.85;2.72;;;4.80;75.10;;;;;;5075136;28;20036;-87
2023/03/16 02:14:50;;;;;;;9.60;2.63;;;4.80;75.10;;;;;;5075922;28;20070;-87
2023/03/16 02:17:22;;;;;;;8.55;3.05;;;4.70;75.10;;;;;;5092174;28;20119;-86
2023/03/16 02:20:08;;;;;;;8.05;2.83;;;4.70;75.10;;;;;;5092678;28;20527;-87
2023/03/16 02:22:35;;;;;;;11.63;4.22;;;4.70;75.10;;;;;;5075483;28;20558;-87
2023/03/16 02:25:01;;;;;;;9.25;2.70;;;4.80;75.20;;;;;;5074973;28;20085;-87
2023/03/16 02:27:41;;;;;;;9.10;2.55;;;4.70;75.10;;;;;;5075541;28;20044;-87
2023/03/16 02:30:13;;;;;;;9.05;2.83;;;4.80;75.20;;;;;;5091572;28;20043;-87
2023/03/16 02:32:40;;;;;;;9.18;2.83;;;4.80;75.20;;;;;;5075371;28;20036;-87
2023/03/16 02:35:07;;;;;;;7.32;2.60;;;4.70;76.10;;;;;;5074773;28;20051;-87
2023/03/16 02:37:33;;;;;;;7.03;2.60;;;4.70;75.50;;;;;;5074931;28;20047;-87
2023/03/16 02:40:00;;;;;;;8.32;2.90;;;4.70;75.50;;;;;;5092279;28;20409;-86
2023/03/16 02:42:27;;;;;;;8.93;2.38;;;4.70;75.70;;;;;;5091770;28;20119;-86
2023/03/16 02:44:56;;;;;;;7.82;2.75;;;4.80;75.60;;;;;;5091986;28;20043;-86
2023/03/16 02:47:42;;;;;;;10.68;2.85;;;4.80;75.90;;;;;;5074238;28;20168;-86
2023/03/16 02:50:10;;;;;;;6.57;2.60;;;4.70;75.60;;;;;;5091823;28;20174;-87
2023/03/16 02:52:37;;;;;;;9.02;2.72;;;4.70;75.80;;;;;;5074809;28;20071;-86
2023/03/16 02:55:04;;;;;;;11.38;3.15;;;4.70;75.90;;;;;;5074354;28;20120;-86
2023/03/16 02:57:30;;;;;;;8.65;2.92;;;4.70;76.00;;;;;;5074827;28;20106;-86
2023/03/16 02:59:56;;;;;;;9.10;2.75;;;4.80;76.00;;;;;;5074020;28;20073;-86
2023/03/16 03:02:22;;;;;;;7.40;2.63;;;4.80;75.90;;;;;;5075324;28;20127;-86
2023/03/16 03:04:47;;;;;;;9.75;3.03;;;4.80;75.90;;;;;;5074311;28;20081;-86
2023/03/16 03:07:14;;;;;;;8.27;2.78;;;4.80;76.00;;;;;;5074343;28;20036;-86
2023/03/16 03:09:43;;;;;;;8.60;2.65;;;4.80;76.00;;;;;;5091248;28;20631;-86
2023/03/16 03:12:10;;;;;;;8.32;2.90;;;4.80;76.00;;;;;;5074515;28;20536;-86
2023/03/16 03:14:39;;;;;;;8.95;2.67;;;4.90;76.00;;;;;;5091691;28;20121;-86
2023/03/16 03:17:06;;;;;;;8.40;2.50;;;4.90;76.20;;;;;;5073857;28;20075;-86
2023/03/16 03:19:33;;;;;;;10.43;2.75;;;4.90;76.50;;;;;;5074327;28;20043;-86
2023/03/16 03:22:02;;;;;;;10.10;3.05;;;4.90;76.20;;;;;;5091108;28;20066;-86
2023/03/16 03:24:29;;;;;;;7.93;2.97;;;4.90;76.00;;;;;;5090434;28;20082;-86
2023/03/16 03:26:54;;;;;;;6.90;2.40;;;4.90;75.90;;;;;;5074384;28;20044;-86
2023/03/16 03:29:20;;;;;;;6.53;2.40;;;4.90;76.10;;;;;;5090377;28;20028;-86
2023/03/16 03:31:46;;;;;;;8.02;2.60;;;5.00;76.00;;;;;;5090739;28;20089;-86
2023/03/16 03:34:11;;;;;;;7.68;2.90;;;4.90;76.20;;;;;;5074248;28;20196;-86
2023/03/16 03:36:37;;;;;;;7.43;2.67;;;5.00;76.20;;;;;;5073212;28;20031;-86
2023/03/16 03:39:05;;;;;;;9.48;2.75;;;5.00;76.40;;;;;;5090662;28;20062;-86
2023/03/16 03:41:32;;;;;;;7.60;3.00;;;5.00;76.30;;;;;;5090728;28;20132;-86
2023/03/16 03:43:59;;;;;;;10.40;3.20;;;5.00;76.50;;;;;;5073697;28;20459;-86
2023/03/16 03:46:25;;;;;;;8.60;3.10;;;5.00;76.50;;;;;;5074037;28;20058;-86
2023/03/16 03:48:51;;;;;;;7.10;2.60;;;5.00;76.50;;;;;;5089942;28;20040;-86
2023/03/16 03:51:16;;;;;;;10.25;3.03;;;5.00;76.50;;;;;;5090886;28;20039;-86
2023/03/16 03:53:42;;;;;;;9.05;2.95;;;5.00;76.70;;;;;;5074063;28;20036;-86
2023/03/16 03:56:08;;;;;;;9.88;2.97;;;5.00;76.70;;;;;;5090643;28;20044;-86
2023/03/16 03:58:33;;;;;;;8.00;2.97;;;5.10;76.90;;;;;;5090814;28;20039;-85
2023/03/16 04:00:59;;;;;;;7.70;2.65;;;5.00;77.30;;;;;;5089649;28;20046;-86
2023/03/16 04:03:25;;;;;;;7.93;2.88;;;5.10;77.20;;;;;;5090762;28;20042;-85
2023/03/16 04:05:51;;;;;;;6.88;2.60;;;5.10;77.20;;;;;;5090434;28;20107;-85
2023/03/16 04:08:17;;;;;;;9.43;3.38;;;5.10;77.30;;;;;;5074005;28;20085;-85
2023/03/16 04:10:42;;;;;;;7.28;2.85;;;5.10;77.60;;;;;;5090860;28;20497;-86
2023/03/16 04:13:08;;;;;;;8.10;2.72;;;5.10;77.70;;;;;;5089953;28;20044;-85
2023/03/16 04:15:37;;;;;;;7.80;2.70;;;5.10;77.60;;;;;;5090280;28;20047;-85
2023/03/16 04:18:02;;;;;;;7.57;2.78;;;5.10;77.60;;;;;;5072525;28;20027;-85
2023/03/16 04:20:28;;;;;;;8.52;3.13;;;5.00;77.60;;;;;;5090175;28;20046;-85
2023/03/16 04:22:57;;;;;;;10.93;3.08;;;5.10;78.10;;;;;;5090300;28;20071;-85
2023/03/16 04:25:25;;;;;;;10.00;2.97;;;5.10;78.00;;;;;;5089787;28;20051;-85
2023/03/16 04:27:51;;;;;;;7.93;2.95;;;5.10;78.30;;;;;;5072753;28;20040;-85
2023/03/16 04:30:17;;;;;;;7.63;2.70;;;5.00;78.40;;;;;;5089373;28;20071;-85
2023/03/16 04:32:42;;;;;;;8.15;2.90;;;5.00;78.20;;;;;;5073088;28;20068;-85
2023/03/16 04:35:09;;;;;;;7.15;3.10;;;5.00;78.40;;;;;;5092772;28;20492;-85
2023/03/16 04:37:35;;;;;;;10.98;3.10;;;5.00;78.60;;;;;;5093424;28;20115;-85
2023/03/16 04:40:09;;;;;;;8.55;3.28;;;5.00;78.70;;;;;;5094243;28;20123;-85
2023/03/16 04:42:35;;;;;;;9.93;3.20;;;5.10;79.10;;;;;;5094001;28;20057;-85
2023/03/16 04:45:00;;;;;;;10.98;3.33;;;5.00;78.90;;;;;;5077042;28;20036;-85
2023/03/16 04:47:26;;;;;;;9.30;3.95;;;5.00;79.00;;;;;;5077291;28;20032;-85
2023/03/16 04:49:52;;;;;;;7.70;3.00;;;5.00;79.30;;;;;;5093985;28;20512;-85
2023/03/16 04:52:18;;;;;;;9.25;2.72;;;5.00;79.50;;;;;;5094461;28;20085;-85
2023/03/16 04:54:43;;;;;;;8.52;3.22;;;5.00;79.70;;;;;;5094132;28;20233;-85
2023/03/16 04:57:09;;;;;;;10.73;3.00;;;5.00;79.60;;;;;;5076932;28;20043;-87
2023/03/16 04:59:35;;;;;;;11.05;3.55;;;5.00;79.60;;;;;;5093264;28;20036;-87
2023/03/16 05:02:00;;;;;;;8.27;3.00;;;5.00;79.50;;;;;;5092564;28;20040;-86
2023/03/16 05:04:26;;;;;;;9.68;3.10;;;5.00;79.30;;;;;;5076769;28;20390;-86
2023/03/16 05:06:51;;;;;;;9.88;3.15;;;5.10;79.60;;;;;;5076302;28;20038;-87
2023/03/16 05:09:19;;;;;;;10.88;3.38;;;5.10;79.50;;;;;;5075822;28;20489;-87
2023/03/16 05:11:45;;;;;;;6.97;2.78;;;5.10;79.70;;;;;;5076925;28;20093;-87
2023/03/16 05:14:10;;;;;;;11.35;3.03;;;5.10;80.00;;;;;;5092991;28;20035;-87
2023/03/16 05:16:36;;;;;;;7.05;3.03;;;5.10;80.20;;;;;;5077094;28;20054;-86
2023/03/16 05:19:01;;;;;;;8.57;2.88;;;5.10;80.00;;;;;;5093316;28;20082;-86
2023/03/16 05:21:30;;;;;;;8.52;3.08;;;5.10;80.20;;;;;;5076489;28;20123;-87
2023/03/16 05:23:56;;;;;;;6.55;2.70;;;5.10;80.30;;;;;;5093877;28;20044;-86
2023/03/16 05:26:24;;;;;;;8.70;3.20;;;5.10;80.10;;;;;;5092906;28;20036;-86
2023/03/16 05:28:50;;;;;;;7.43;2.65;;;5.10;80.30;;;;;;5093405;28;20071;-87
2023/03/16 05:31:16;;;;;;;8.27;2.97;;;5.10;80.40;;;;;;5093471;28;20048;-86
2023/03/16 05:33:43;;;;;;;6.53;2.42;;;5.10;80.60;;;;;;5093513;28;20076;-86
2023/03/16 05:36:09;;;;;;;7.50;3.05;;;5.10;80.60;;;;;;5076286;28;20032;-86
2023/03/16 05:38:35;;;;;;;7.60;3.25;;;5.10;80.70;;;;;;5075790;28;20040;-86
2023/03/16 05:41:03;;;;;;;6.97;2.58;;;5.10;80.60;;;;;;5075907;28;20055;-86
2023/03/16 05:43:29;;;;;;;9.15;3.15;;;5.10;80.50;;;;;;5092652;28;20497;-86
2023/03/16 05:45:56;;;;;;;8.55;2.83;;;5.10;80.50;;;;;;5092261;28;20047;-86
2023/03/16 05:48:24;;;;;;;8.05;2.83;;;5.20;80.70;;;;;;5094385;28;20044;-86
2023/03/16 05:50:51;;;;;;;7.90;2.95;;;5.20;80.70;;;;;;5078633;28;20032;-86
2023/03/16 05:53:17;;;;;;;9.30;2.85;;;5.20;81.30;;;;;;5076301;28;20039;-87
2023/03/16 05:55:43;;;;;;;8.35;2.80;;;5.20;80.60;;;;;;5092225;28;20035;-87
2023/03/16 05:58:10;;;;;;;7.78;2.65;;;5.20;80.50;;;;;;5091224;28;20043;-87
2023/03/16 06:00:38;;;;;;;9.15;3.08;;;5.20;80.60;;;;;;5075387;28;20081;-87
2023/03/16 06:03:03;;;;;;;7.07;2.78;;;5.20;81.00;;;;;;5074683;28;20024;-86
2023/03/16 06:05:30;;;;;;;9.00;3.03;;;5.20;81.00;;;;;;5092563;28;20481;-87
2023/03/16 06:07:56;;;;;;;8.20;2.70;;;5.20;80.90;;;;;;5074195;28;20048;-87
2023/03/16 06:10:22;;;;;;;7.38;2.80;;;5.20;80.90;;;;;;5092252;28;20096;-87
2023/03/16 06:12:48;;;;;;;7.93;2.58;;;5.20;81.20;;;;;;5091739;28;20032;-88
2023/03/16 06:15:14;;;;;;;7.25;2.55;;;5.20;81.10;;;;;;5074925;28;20039;-87
2023/03/16 06:17:40;;;;;;;8.35;2.78;;;5.30;81.30;;;;;;5091645;28;20519;-86
2023/03/16 06:20:09;;;;;;;7.15;2.67;;;5.30;81.30;;;;;;5091021;28;20044;-87
2023/03/16 06:22:36;;;;;;;6.53;2.60;;;5.30;81.40;;;;;;5091746;28;20059;-86
2023/03/16 06:25:01;;;;;;;7.10;2.60;;;5.30;81.60;;;;;;5074384;28;20047;-86
2023/03/16 06:27:27;;;;;;;7.57;2.92;;;5.30;81.70;;;;;;5091064;28;20515;-86
2023/03/16 06:29:53;;;;;;;7.47;2.90;;;5.30;81.70;;;;;;5091313;28;20100;-86
2023/03/16 06:32:18;;;;;;;7.80;2.70;;;5.30;81.70;;;;;;5074794;28;20031;-86
2023/03/16 06:34:44;;;;;;;8.52;2.55;;;5.40;81.60;;;;;;5091855;28;20043;-86
2023/03/16 06:37:10;;;;;;;8.07;2.83;;;5.40;81.90;;;;;;5090754;28;20122;-86
2023/03/16 06:39:35;;;;;;;9.23;2.97;;;5.40;81.80;;;;;;5091899;28;20086;-87
2023/03/16 06:42:03;;;;;;;8.48;2.90;;;5.40;81.70;;;;;;5091382;28;20503;-86
2023/03/16 06:44:29;;;;;;;7.63;2.53;;;5.40;81.90;;;;;;5074612;28;20039;-87
2023/03/16 06:46:55;;;;;;;7.07;2.80;;;5.40;81.90;;;;;;5091627;28;20398;-87
2023/03/16 06:49:20;;;;;;;10.85;3.20;;;5.40;81.90;;;;;;5073665;28;20028;-87
2023/03/16 06:51:46;;;;;;;8.73;2.90;;;5.50;82.00;;;;;;5091768;28;20039;-87
2023/03/16 06:54:12;;;;;;;9.02;2.65;;;5.50;82.20;;;;;;5091260;28;20038;-87
2023/03/16 06:56:37;;;;;;;8.23;2.47;;;5.50;81.90;;;;;;5090444;28;20082;-87
2023/03/16 06:59:03;;;;;;;8.15;2.63;;;5.50;81.90;;;;;;5091584;28;20032;-87
2023/03/16 07:01:30;;;;;;;8.40;2.75;;;5.50;81.70;;;;;;5074036;28;20217;-88
2023/03/16 07:03:56;;;;;;;7.28;2.83;;;5.60;81.80;;;;;;5091497;28;20040;-88
2023/03/16 07:06:21;;;;;;;6.57;2.50;;;5.60;82.00;;;;;;5091073;28;20084;-88
2023/03/16 07:08:47;;;;;;;6.22;2.40;;;5.60;81.80;;;;;;5090230;28;20032;-87
2023/03/16 07:11:13;;;;;;;6.95;2.88;;;5.60;81.90;;;;;;5091141;28;20111;-88
2023/03/16 07:13:39;;;;;;;7.65;2.60;;;5.60;81.70;;;;;;5091306;28;20497;-86
2023/03/16 07:16:05;;;;;;;10.38;3.22;;;5.70;81.90;;;;;;5091358;28;20054;-87
2023/03/16 07:18:31;;;;;;;7.22;2.40;;;5.70;82.00;;;;;;5072319;28;20044;-87
2023/03/16 07:20:57;;;;;;;7.72;2.97;;;5.70;81.70;;;;;;5073354;28;20086;-87
2023/03/16 07:23:23;;;;;;;8.77;3.17;;;5.70;81.90;;;;;;5073818;28;20040;-87
2023/03/16 07:25:50;;;;;;;7.47;2.88;;;5.70;81.90;;;;;;5073208;28;20050;-87
2023/03/16 07:28:17;;;;;;;6.25;2.40;;;5.80;82.00;;;;;;5073697;28;20051;-87
2023/03/16 07:30:44;;;;;;;8.27;3.08;;;5.70;82.00;;;;;;5074472;28;20477;-87
2023/03/16 07:33:10;;;;;;;7.35;2.50;;;5.80;82.20;;;;;;5089771;28;20072;-87
2023/03/16 07:35:36;;;;;;;7.57;2.70;;;5.80;81.90;;;;;;5073731;28;20090;-87
2023/03/16 07:38:02;;;;;;;8.40;2.58;;;5.80;82.00;;;;;;5089935;28;20075;-87
2023/03/16 07:40:28;;;;;;;7.60;3.05;;;5.80;82.00;;;;;;5090071;28;20666;-87
2023/03/16 07:42:54;;;;;;;6.20;2.30;;;5.80;82.00;;;;;;5073588;28;20046;-87
2023/03/16 07:45:20;;;;;;;7.80;2.65;;;5.90;82.20;;;;;;5090086;28;20068;-88
2023/03/16 07:47:46;;;;;;;8.40;2.83;;;5.90;82.20;;;;;;5073390;28;20044;-87
2023/03/16 07:50:15;;;;;;;7.55;2.67;;;5.90;82.20;;;;;;5073261;28;20082;-88
2023/03/16 07:52:40;;;;;;;8.63;3.28;;;6.00;82.60;;;;;;5074047;28;20461;-87
2023/03/16 07:55:06;;;;;;;7.45;3.10;;;6.00;82.40;;;;;;5090490;28;20084;-88
2023/03/16 07:57:32;;;;;;;8.88;3.25;;;6.00;82.40;;;;;;5090473;28;20417;-87
2023/03/16 07:59:58;;;;;;;7.28;2.75;;;6.00;82.20;;;;;;5073633;28;20036;-88
2023/03/16 08:02:24;;;;;;;8.35;3.28;;;6.10;82.70;;;;;;5073420;28;20043;-88
2023/03/16 08:04:50;;;;;;;5.57;2.42;;;6.10;82.50;;;;;;5073708;28;20032;-87
2023/03/16 08:07:16;;;;;;;9.48;2.80;;;6.10;82.50;;;;;;5072366;28;20164;-88
2023/03/16 08:09:42;;;;;;;6.63;2.67;;;6.20;82.70;;;;;;5052939;28;20047;-88
2023/03/16 08:12:09;;;;;;;8.80;2.97;;;6.20;82.30;;;;;;5053517;28;20494;-87
2023/03/16 08:14:35;;;;;;;8.48;2.60;;;6.20;82.50;;;;;;5073757;28;20032;-87
2023/03/16 08:17:06;;;;;;;7.90;3.10;;;6.20;82.40;;;;;;5073521;28;20437;-87
2023/03/16 08:19:32;;;;;;;7.60;2.95;;;6.30;82.40;;;;;;5072580;28;20040;-88
2023/03/16 08:22:00;;;;;;;7.63;2.95;;;6.30;82.70;;;;;;5090223;28;20043;-88
2023/03/16 08:24:26;;;;;;;8.65;2.67;;;6.30;83.00;;;;;;5089734;28;20078;-87
2023/03/16 08:26:52;;;;;;;9.50;3.55;;;6.30;83.50;;;;;;5071871;28;20072;-87
2023/03/16 08:29:18;;;;;;;8.57;3.10;;;6.40;83.40;;;;;;5090081;28;20068;-87
2023/03/16 08:31:44;;;;;;;9.40;3.03;;;6.40;83.70;;;;;;5090122;28;20420;-87
2023/03/16 08:34:10;;;;;;;8.57;3.08;;;6.40;83.90;;;;;;5074224;28;20032;-88
2023/03/16 08:36:36;;;;;;;8.20;3.28;;;6.40;83.70;;;;;;5089504;28;20089;-88
2023/03/16 08:39:04;;;;;;;7.43;2.80;;;6.40;84.00;;;;;;5089868;28;20481;-88
2023/03/16 08:41:31;;;;;;;9.63;3.15;;;6.40;84.00;;;;;;5090003;28;20039;-86
2023/03/16 08:43:58;;;;;;;8.75;2.80;;;6.40;84.60;;;;;;5090285;28;20109;-88
2023/03/16 08:46:24;;;;;;;8.68;3.40;;;6.40;84.60;;;;;;5072688;28;20564;-87
2023/03/16 08:48:51;;;;;;;9.43;3.72;;;6.40;84.60;;;;;;5072784;28;20128;-87
2023/03/16 08:51:18;;;;;;;8.10;3.55;;;6.40;85.00;;;;;;5090654;28;20439;-87
2023/03/16 08:53:44;;;;;;;8.80;3.60;;;6.50;85.20;;;;;;5088463;28;20085;-88
2023/03/16 08:56:13;;;;;;;7.95;3.00;;;6.50;85.40;;;;;;5073877;28;20044;-87
2023/03/16 08:58:41;;;;;;;7.60;3.15;;;6.50;86.00;;;;;;5089654;28;20535;-87
2023/03/16 09:01:07;;;;;;;9.57;3.78;;;6.50;86.60;;;;;;5072640;28;20043;-87
2023/03/16 09:03:34;;;;;;;7.65;3.15;;;6.50;87.40;;;;;;5073586;28;20032;-88
2023/03/16 09:06:05;;;;;;;8.02;3.35;;;6.50;87.00;;;;;;5071993;28;20040;-88
2023/03/16 09:08:31;;;;;;;9.70;3.25;;;6.60;87.70;;;;;;5067986;28;20118;-88
2023/03/16 09:11:02;;;;;;;10.13;3.50;;;6.60;87.70;;;;;;5066013;28;20040;-87
2023/03/16 09:13:28;;;;;;;7.05;3.45;;;6.60;88.40;;;;;;5064892;28;20032;-87
2023/03/16 09:15:55;;;;;;;10.43;3.70;;;6.60;88.60;;;;;;5099896;28;20051;-87
2023/03/16 09:18:22;;;;;;;9.05;3.80;;;6.60;89.10;;;;;;5082903;28;20595;-87
2023/03/16 09:20:48;;;;;;;9.45;3.55;;;6.60;89.30;;;;;;5081693;28;20089;-87
2023/03/16 09:23:14;;;;;;;9.05;3.50;;;6.70;90.10;;;;;;5084354;28;20040;-87
2023/03/16 09:25:40;;;;;;;10.80;3.72;;;6.70;90.00;;;;;;5086937;28;20112;-87
2023/03/16 09:28:06;;;;;;;9.23;3.47;;;6.70;90.00;;;;;;5083980;28;20047;-87
2023/03/16 09:30:31;;;;;;;8.55;3.67;;;6.70;90.40;;;;;;5086356;28;20075;-86
2023/03/16 09:32:58;;;;;;;8.20;3.40;;;6.70;90.30;;;;;;5084763;28;20039;-87
2023/03/16 09:35:25;;;;;;;10.05;4.10;;;6.70;90.70;;;;;;5083225;28;20038;-87
2023/03/16 09:37:51;;;;;;;10.45;4.20;;;6.80;90.90;;;;;;5098667;28;20047;-88
2023/03/16 09:40:29;;;;;;;10.23;3.83;;;6.80;91.20;;;;;;5059290;28;20036;-87
2023/03/16 09:43:33;;;;;;;8.30;3.88;;;6.80;91.70;;;;;;5070679;28;20040;-86
2023/03/16 09:46:28;;;;;;;11.43;4.00;;;6.80;92.60;;;;;;5076463;28;20092;-87
2023/03/16 09:48:56;;;;;;;7.75;3.53;;;6.90;92.80;;;;;;5092351;28;20054;-87
2023/03/16 09:51:39;;;;;;;8.85;3.35;;;6.90;92.80;;;;;;5110580;28;20410;-88
2023/03/16 09:54:28;;;;;;;9.82;4.10;;;7.00;93.00;;;;;;5092824;28;20048;-86
2023/03/16 09:56:55;;;;;;;9.40;3.72;;;7.00;93.60;;;;;;5090301;28;20039;-87
2023/03/16 09:59:21;;;;;;;10.10;3.75;;;7.00;93.80;;;;;;5074495;28;20075;-88
2023/03/16 10:02:34;;;;;;;13.20;3.85;;;7.00;93.60;;;;;;5075561;28;20063;-87
2023/03/16 10:05:06;;;;;;;10.48;3.58;;;7.10;94.90;;;;;;5020790;28;20055;-87
2023/03/16 10:07:48;;;;;;;8.00;3.40;;;7.10;94.20;;;;;;5091694;28;20039;-87
2023/03/16 10:10:25;;;;;;;9.57;3.93;;;7.10;95.20;;;;;;5075849;28;20071;-87
2023/03/16 10:12:56;;;;;;;11.10;3.92;;;7.10;95.20;;;;;;5074942;28;20032;-86
2023/03/16 10:15:26;;;;;;;9.45;4.05;;;7.10;95.40;;;;;;5075725;28;20044;-87
2023/03/16 10:18:09;;;;;;;10.23;3.67;;;7.10;95.70;;;;;;5085573;28;20041;-87
2023/03/16 10:20:35;;;;;;;10.02;3.67;;;7.10;97.50;;;;;;5090391;28;20117;-87
2023/03/16 10:23:15;;;;;;;8.48;3.75;;;7.10;97.10;;;;;;5083580;28;20115;-87
2023/03/16 10:25:45;;;;;;;9.38;3.55;;;7.10;98.10;;;;;;5091511;28;20405;-87
2023/03/16 10:28:17;;;;;;;11.45;4.10;;;7.20;97.80;;;;;;5092061;28;20044;-87
2023/03/16 10:30:44;;;;;;;8.13;3.70;;;7.20;99.00;;;;;;5075041;28;20089;-88
2023/03/16 10:33:32;;;;;;;8.27;3.95;;;7.30;99.20;;;;;;5091732;28;20075;-87
2023/03/16 10:35:57;;;;;;;11.05;3.63;;;7.30;99.90;;;;;;5091241;28;20040;-87
2023/03/16 10:38:38;;;;;;;11.32;4.00;;;7.30;99.90;;;;;;5074734;28;20092;-87
2023/03/16 10:41:31;;;;;;;7.72;3.28;;;7.40;99.90;;;;;;5074050;28;20109;-87
2023/03/16 10:44:11;;;;;;;11.15;4.07;;;7.40;99.90;;;;;;5092124;28;20036;-88
2023/03/16 10:46:47;;;;;;;9.38;3.65;;;7.40;99.90;;;;;;5091576;28;20047;-88
2023/03/16 10:49:39;;;;;;;8.98;3.97;;;7.50;99.90;;;;;;5091127;28;20036;-87
2023/03/16 10:52:36;;;;;;;10.30;3.88;;;7.50;99.90;;;;;;5080453;28;20069;-89
2023/03/16 10:55:27;;;;;;;10.27;4.15;;;7.60;99.90;;;;;;5074451;28;20123;-88
2023/03/16 10:57:55;;;;;;;11.70;3.72;;;7.60;99.90;;;;;;5074515;28;20123;-89
2023/03/16 11:00:25;;;;;;;7.28;3.42;;;7.60;99.90;;;;;;5091127;28;20054;-88
2023/03/16 11:02:53;;;;;;;10.77;3.75;;;7.70;99.40;;;;;;5091791;28;20042;-88
2023/03/16 11:05:28;;;;;;;8.52;3.78;;;7.70;99.80;;;;;;5073688;28;20047;-87
2023/03/16 11:07:58;;;;;;;9.50;3.42;;;7.70;99.40;;;;;;5091371;28;20036;-87
2023/03/16 11:10:27;;;;;;;12.68;3.20;;;7.70;99.90;;;;;;5075073;28;20058;-88
2023/03/16 11:12:54;;;;;;;8.00;3.55;;;7.80;99.90;;;;;;5073725;28;20478;-87
2023/03/16 11:15:20;;;;;;;9.63;3.45;;;7.80;99.90;;;;;;5073711;28;20439;-88
2023/03/16 11:17:51;;;;;;;8.23;3.00;;;7.80;99.90;;;;;;5072835;28;20047;-88
2023/03/16 11:20:22;;;;;;;9.30;3.80;;;7.80;99.90;;;;;;5073985;28;20040;-88
2023/03/16 11:22:48;;;;;;;11.10;2.90;;;7.90;99.90;;;;;;5073329;28;20442;-88
2023/03/16 11:25:35;;;;;;;9.05;3.13;;;7.90;99.90;;;;;;5090433;28;20509;-89
2023/03/16 11:28:14;;;;;;;7.20;2.72;;;7.90;99.90;;;;;;5073865;28;20409;-89
2023/03/16 11:31:02;;;;;;;8.18;2.80;;;8.00;99.40;;;;;;5108137;28;20046;-89
2023/03/16 11:33:30;;;;;;;10.52;3.20;;;8.00;99.50;;;;;;5091729;28;20036;-88
2023/03/16 11:36:11;;;;;;;9.38;3.30;;;8.00;98.40;;;;;;5074331;28;20086;-88
2023/03/16 11:38:49;;;;;;;8.07;2.63;;;8.10;98.60;;;;;;5073778;28;20083;-89
2023/03/16 11:41:30;;;;;;;8.65;3.03;;;8.10;98.70;;;;;;5065008;28;20089;-89
2023/03/16 11:44:07;;;;;;;8.38;2.88;;;8.10;97.60;;;;;;5089687;28;20043;-89
2023/03/16 11:46:56;;;;;;;8.20;3.28;;;8.20;96.90;;;;;;5089842;28;20076;-89
2023/03/16 11:49:46;;;;;;;9.63;3.00;;;8.20;96.80;;;;;;5089818;28;20032;-89
2023/03/16 11:52:48;;;;;;;8.32;3.08;;;8.30;97.40;;;;;;5090836;28;20036;-90
2023/03/16 11:55:52;;;;;;;9.63;3.13;;;8.40;98.40;;;;;;5090862;28;20046;-91
2023/03/16 11:58:52;;;;;;;8.73;3.20;;;8.40;96.30;;;;;;5089904;28;20046;-90
2023/03/16 12:01:42;;;;;;;7.15;2.60;;;8.40;96.70;;;;;;5089945;28;20047;-89
2023/03/16 12:04:32;;;;;;;8.23;3.08;;;8.50;96.10;;;;;;5089143;28;20032;-89
2023/03/16 12:07:27;;;;;;;8.20;3.28;;;8.50;96.30;;;;;;5069924;28;20048;-89
2023/03/16 12:10:19;;;;;;;6.28;2.78;;;8.70;96.70;;;;;;5077447;28;20516;-89
2023/03/16 12:13:13;;;;;;;10.68;3.03;;;8.80;95.20;;;;;;5074619;28;20078;-89
2023/03/16 12:15:47;;;;;;;11.32;3.10;;;8.90;94.00;;;;;;5072745;28;20071;-90
2023/03/16 12:18:20;;;;;;;7.95;2.95;;;9.10;93.70;;;;;;5072894;28;20040;-90
2023/03/16 12:20:58;;;;;;;8.10;3.13;;;9.20;93.60;;;;;;5081465;28;20086;-90
2023/03/16 12:23:48;;;;;;;8.15;3.17;;;9.40;92.90;;;;;;5064521;28;20040;-89
2023/03/16 12:26:16;;;;;;;8.88;3.50;;;9.50;92.90;;;;;;5099447;28;20568;-90
2023/03/16 12:28:42;;;;;;;7.10;2.90;;;9.70;92.10;;;;;;5097235;28;20489;-89
2023/03/16 12:31:26;;;;;;;8.02;3.50;;;9.80;91.50;;;;;;5090487;28;20043;-89
2023/03/16 12:34:23;;;;;;;8.13;3.22;;;9.90;91.20;;;;;;5074129;28;20447;-90
2023/03/16 12:37:19;;;;;;;8.48;3.42;;;10.00;90.10;;;;;;5073695;28;20089;-90
2023/03/16 12:39:47;;;;;;;7.85;3.08;;;10.10;88.90;;;;;;5087701;28;20169;-89
2023/03/16 12:42:39;;;;;;;7.55;3.10;;;10.10;87.40;;;;;;5088362;28;20513;-89
2023/03/16 12:45:17;;;;;;;7.78;2.90;;;10.10;87.10;;;;;;5084909;28;20139;-89
2023/03/16 12:48:07;;;;;;;9.60;3.38;;;10.10;86.80;;;;;;5089010;28;20059;-89
2023/03/16 12:50:33;;;;;;;9.35;2.90;;;10.10;86.50;;;;;;5073394;28;20131;-90
2023/03/16 12:52:59;;;;;;;8.13;3.25;;;10.10;86.70;;;;;;5073118;28;20086;-90
2023/03/16 12:55:36;;;;;;;7.82;3.13;;;10.10;86.10;;;;;;5091745;28;20040;-89
2023/03/16 12:58:06;;;;;;;8.98;3.25;;;10.10;85.50;;;;;;5076874;28;20127;-90
2023/03/16 13:00:36;;;;;;;8.55;3.70;;;10.10;84.80;;;;;;5076210;28;20540;-90
2023/03/16 13:03:04;;;;;;;8.32;3.30;;;10.10;84.40;;;;;;5077241;28;20084;-90
2023/03/16 13:05:35;;;;;;;8.02;3.00;;;10.10;84.30;;;;;;5076504;28;20036;-89
2023/03/16 13:08:09;;;;;;;7.50;2.78;;;10.00;84.30;;;;;;5075890;28;20119;-90
2023/03/16 13:10:36;;;;;;;9.10;3.30;;;10.00;84.30;;;;;;5092957;28;20044;-89